createdAt,value
2017-09-18T00:00:46.036Z,81.40
2017-09-18T00:03:27.808Z,81.50
2017-09-18T00:06:03.605Z,82.10
2017-09-18T00:08:38.154Z,82.10
2017-09-18T00:11:16.884Z,82.00
2017-09-18T00:14:05.047Z,82.10
2017-09-18T00:19:32.320Z,82.70
2017-09-18T00:22:07.525Z,82.80
2017-09-18T00:24:51.112Z,82.60
2017-09-18T00:27:28.807Z,82.70
2017-09-18T00:30:03.808Z,83.00
2017-09-18T00:32:40.183Z,83.30
2017-09-18T00:35:16.518Z,83.40
2017-09-18T00:37:58.223Z,83.00
2017-09-18T00:40:39.737Z,83.60
2017-09-18T00:43:13.992Z,84.00
2017-09-18T00:45:54.310Z,84.20
2017-09-18T00:48:31.422Z,85.60
2017-09-18T00:51:06.202Z,85.30
2017-09-18T00:53:43.070Z,85.50
2017-09-18T00:56:24.324Z,85.40
2017-09-18T00:59:00.066Z,85.10
2017-09-18T01:01:39.276Z,85.40
2017-09-18T01:04:15.713Z,85.80
2017-09-18T01:07:05.783Z,85.90
2017-09-18T01:09:48.132Z,86.30
2017-09-18T01:12:24.665Z,86.10
2017-09-18T01:15:00.113Z,86.80
2017-09-18T01:17:42.010Z,87.00
2017-09-18T01:20:21.805Z,86.90
2017-09-18T01:22:59.036Z,87.60
2017-09-18T01:25:40.189Z,88.10
2017-09-18T01:28:17.364Z,88.00
2017-09-18T01:30:52.607Z,88.50
2017-09-18T01:33:35.469Z,88.90
2017-09-18T01:36:10.112Z,88.60
2017-09-18T01:38:45.539Z,88.90
2017-09-18T01:41:21.580Z,87.70
2017-09-18T01:43:55.635Z,87.50
2017-09-18T01:46:32.271Z,88.30
2017-09-18T01:49:10.653Z,88.50
2017-09-18T01:51:46.321Z,88.50
2017-09-18T01:54:23.709Z,87.40
2017-09-18T01:56:58.205Z,87.90
2017-09-18T01:59:37.373Z,88.30
2017-09-18T02:02:13.216Z,88.90
2017-09-18T02:05:00.429Z,88.80
2017-09-18T02:07:39.822Z,88.70
2017-09-18T02:10:15.257Z,88.80
2017-09-18T02:12:52.071Z,88.50
2017-09-18T02:15:28.039Z,88.20
2017-09-18T02:18:05.975Z,89.20
2017-09-18T02:20:43.828Z,89.10
2017-09-18T02:23:21.737Z,89.30
2017-09-18T02:25:56.048Z,89.30
2017-09-18T02:28:31.073Z,90.00
2017-09-18T02:31:12.421Z,90.00
2017-09-18T02:33:54.974Z,89.90
2017-09-18T02:39:26.601Z,90.10
2017-09-18T02:42:03.900Z,89.10
2017-09-18T02:44:41.397Z,89.30
2017-09-18T02:47:22.358Z,89.60
2017-09-18T02:50:01.924Z,89.60
2017-09-18T02:52:38.387Z,89.30
2017-09-18T02:55:18.283Z,89.30
2017-09-18T02:57:56.773Z,89.00
2017-09-18T03:00:32.584Z,88.90
2017-09-18T03:03:11.316Z,88.70
2017-09-18T03:05:49.324Z,88.60
2017-09-18T03:08:27.427Z,89.10
2017-09-18T03:11:03.514Z,90.00
2017-09-18T03:16:34.402Z,89.10
2017-09-18T03:19:17.038Z,89.00
2017-09-18T03:21:55.345Z,89.00
2017-09-18T03:24:33.463Z,89.10
2017-09-18T03:27:11.084Z,88.80
2017-09-18T03:29:47.661Z,89.10
2017-09-18T03:32:26.724Z,89.60
2017-09-18T03:35:05.741Z,89.20
2017-09-18T03:37:45.111Z,89.20
2017-09-18T03:40:22.901Z,89.00
2017-09-18T03:43:02.059Z,88.60
2017-09-18T03:45:37.602Z,89.50
2017-09-18T03:48:12.725Z,89.20
2017-09-18T03:50:48.801Z,89.20
2017-09-18T03:53:25.717Z,89.90
2017-09-18T03:56:03.477Z,89.30
2017-09-18T03:58:44.123Z,89.60
2017-09-18T04:01:24.695Z,90.00
2017-09-18T04:04:01.924Z,90.30
2017-09-18T04:06:45.961Z,90.20
2017-09-18T04:09:23.190Z,90.00
2017-09-18T04:12:01.072Z,90.30
2017-09-18T04:14:49.355Z,90.20
2017-09-18T04:17:29.679Z,90.10
2017-09-18T04:22:49.807Z,90.30
2017-09-18T04:25:31.266Z,90.30
2017-09-18T04:28:17.445Z,90.50
2017-09-18T04:30:55.705Z,90.40
2017-09-18T04:33:38.594Z,90.60
2017-09-18T04:36:14.382Z,90.60
2017-09-18T04:41:32.626Z,90.50
2017-09-18T04:44:12.305Z,90.40
2017-09-18T04:46:47.230Z,90.50
2017-09-18T04:49:26.012Z,90.40
2017-09-18T04:52:01.479Z,90.50
2017-09-18T04:54:40.126Z,90.30
2017-09-18T04:57:17.846Z,90.50
2017-09-18T04:59:57.918Z,90.40
2017-09-18T05:02:34.242Z,90.20
2017-09-18T05:05:10.664Z,90.00
2017-09-18T05:07:51.611Z,90.20
2017-09-18T05:10:27.348Z,89.70
2017-09-18T05:13:04.718Z,89.60
2017-09-18T05:15:38.962Z,89.90
2017-09-18T05:18:16.749Z,90.10
2017-09-18T05:20:55.425Z,90.00
2017-09-18T05:23:34.265Z,90.10
2017-09-18T05:29:05.410Z,89.50
2017-09-18T05:31:40.333Z,89.20
2017-09-18T05:34:19.609Z,89.10
2017-09-18T05:36:55.402Z,89.60
2017-09-18T05:39:32.131Z,88.90
2017-09-18T05:42:16.465Z,88.90
2017-09-18T05:44:50.665Z,88.90
2017-09-18T05:47:30.230Z,89.10
2017-09-18T05:50:08.253Z,89.40
2017-09-18T05:52:50.609Z,89.30
2017-09-18T05:55:30.925Z,89.30
2017-09-18T05:58:15.955Z,89.10
2017-09-18T06:00:52.373Z,88.80
2017-09-18T06:03:28.905Z,88.40
2017-09-18T06:06:04.910Z,88.30
2017-09-18T06:08:40.411Z,88.30
2017-09-18T06:11:22.978Z,88.00
2017-09-18T06:13:57.704Z,88.20
2017-09-18T06:16:36.276Z,88.30
2017-09-18T06:19:11.119Z,88.80
2017-09-18T06:21:45.786Z,89.60
2017-09-18T06:24:27.746Z,90.30
2017-09-18T06:27:03.688Z,91.40
2017-09-18T06:32:28.721Z,91.60
2017-09-18T06:35:13.796Z,91.60
2017-09-18T06:37:53.691Z,91.70
2017-09-18T06:40:30.133Z,91.80
2017-09-18T06:43:06.248Z,92.00
2017-09-18T06:45:41.688Z,92.00
2017-09-18T06:48:19.069Z,91.90
2017-09-18T06:50:56.699Z,91.80
2017-09-18T06:53:34.411Z,91.90
2017-09-18T06:56:11.608Z,91.70
2017-09-18T06:58:47.019Z,91.90
2017-09-18T07:01:23.355Z,92.30
2017-09-18T07:04:07.612Z,92.20
2017-09-18T07:06:44.749Z,92.10
2017-09-18T07:09:20.186Z,92.30
2017-09-18T07:11:55.694Z,90.40
2017-09-18T07:14:29.849Z,90.40
2017-09-18T07:17:09.493Z,90.00
2017-09-18T07:19:48.832Z,90.00
2017-09-18T07:22:24.641Z,89.40
2017-09-18T07:25:02.818Z,89.10
2017-09-18T07:27:38.890Z,89.10
2017-09-18T07:30:16.340Z,90.10
2017-09-18T07:32:53.822Z,90.10
2017-09-18T07:35:32.120Z,88.10
2017-09-18T07:38:07.634Z,87.90
2017-09-18T07:40:51.614Z,88.80
2017-09-18T07:43:26.846Z,88.10
2017-09-18T07:46:04.437Z,85.80
2017-09-18T07:48:44.617Z,85.70
2017-09-18T07:54:11.711Z,84.20
2017-09-18T07:56:46.454Z,83.10
2017-09-18T08:02:09.400Z,84.00
2017-09-18T08:04:44.277Z,82.70
2017-09-18T08:07:18.137Z,83.90
2017-09-18T08:09:55.555Z,82.90
2017-09-18T08:12:32.921Z,81.70
2017-09-18T08:15:12.455Z,82.00
2017-09-18T08:17:49.233Z,81.90
2017-09-18T08:20:27.186Z,81.60
2017-09-18T08:23:05.417Z,81.80
2017-09-18T08:25:41.803Z,80.90
2017-09-18T08:28:16.149Z,80.80
2017-09-18T08:30:52.241Z,80.80
2017-09-18T08:33:32.664Z,79.90
2017-09-18T08:36:11.430Z,79.70
2017-09-18T08:39:01.679Z,80.00
2017-09-18T08:41:37.223Z,78.90
2017-09-18T08:44:18.707Z,78.70
2017-09-18T08:46:54.244Z,80.50
2017-09-18T08:49:31.249Z,79.20
2017-09-18T08:52:09.420Z,78.90
2017-09-18T08:54:46.375Z,77.60
2017-09-18T08:57:36.050Z,77.70
2017-09-18T09:00:12.371Z,77.90
2017-09-18T09:02:49.214Z,77.70
2017-09-18T09:05:26.096Z,76.60
2017-09-18T09:08:04.195Z,74.40
2017-09-18T09:10:53.862Z,73.70
2017-09-18T09:13:32.846Z,74.20
2017-09-18T09:16:09.290Z,73.90
2017-09-18T09:18:47.842Z,74.50
2017-09-18T09:21:24.518Z,72.00
2017-09-18T09:24:05.749Z,71.70
2017-09-18T09:26:42.595Z,71.20
2017-09-18T09:29:21.005Z,71.10
2017-09-18T09:31:56.228Z,70.80
2017-09-18T09:34:32.051Z,68.50
2017-09-18T09:37:09.575Z,67.60
2017-09-18T09:39:50.578Z,68.00
2017-09-18T09:42:26.756Z,65.00
2017-09-18T09:45:03.945Z,65.10
2017-09-18T09:47:44.975Z,66.20
2017-09-18T09:50:20.169Z,65.80
2017-09-18T09:53:02.496Z,64.20
2017-09-18T09:55:44.780Z,66.70
2017-09-18T09:58:20.859Z,66.40
2017-09-18T10:00:57.218Z,66.70
2017-09-18T10:03:34.707Z,67.10
2017-09-18T10:06:14.716Z,67.40
2017-09-18T10:08:50.070Z,66.70
2017-09-18T10:11:31.852Z,67.60
2017-09-18T10:18:42.658Z,65.50
2017-09-18T10:24:09.764Z,67.00
2017-09-18T10:26:46.005Z,67.00
2017-09-18T10:29:23.302Z,65.50
2017-09-18T10:32:00.215Z,67.90
2017-09-18T10:34:35.753Z,68.40
2017-09-18T10:37:14.226Z,67.40
2017-09-18T10:39:50.505Z,69.40
2017-09-18T10:42:36.757Z,66.60
2017-09-18T10:45:13.383Z,67.40
2017-09-18T10:47:48.547Z,69.60
2017-09-18T10:50:25.947Z,63.10
2017-09-18T10:53:06.046Z,64.40
2017-09-18T10:55:42.934Z,65.90
2017-09-18T10:58:18.569Z,65.50
2017-09-18T11:00:56.856Z,65.50
2017-09-18T11:03:31.957Z,65.40
2017-09-18T11:06:08.959Z,66.30
2017-09-18T11:08:48.210Z,66.10
2017-09-18T11:11:38.489Z,65.30
2017-09-18T11:14:16.605Z,67.80
2017-09-18T11:16:52.773Z,68.40
2017-09-18T11:19:34.777Z,66.60
2017-09-18T11:22:10.180Z,66.70
2017-09-18T11:24:48.892Z,63.70
2017-09-18T11:27:28.249Z,63.40
2017-09-18T11:30:07.139Z,61.10
2017-09-18T11:32:44.155Z,60.00
2017-09-18T11:35:24.371Z,59.70
2017-09-18T11:38:02.510Z,59.80
2017-09-18T11:40:38.450Z,60.40
2017-09-18T11:43:20.595Z,60.20
2017-09-18T11:45:55.531Z,61.00
2017-09-18T11:48:32.092Z,61.90
2017-09-18T11:51:12.135Z,62.70
2017-09-18T11:53:50.400Z,61.90
2017-09-18T11:56:25.730Z,63.00
2017-09-18T11:59:02.948Z,62.00
2017-09-18T12:04:31.384Z,63.30
2017-09-18T12:07:06.634Z,59.80
2017-09-18T12:09:58.701Z,60.40
2017-09-18T12:12:35.365Z,60.70
2017-09-18T12:15:09.953Z,60.90
2017-09-18T12:17:44.107Z,61.10
2017-09-18T12:20:23.874Z,61.40
2017-09-18T12:22:59.690Z,62.80
2017-09-18T12:25:51.794Z,63.20
2017-09-18T12:28:32.895Z,62.30
2017-09-18T12:31:07.909Z,62.00
2017-09-18T12:33:49.570Z,63.00
2017-09-18T12:36:25.593Z,62.90
2017-09-18T12:39:00.914Z,63.30
2017-09-18T12:41:37.880Z,61.60
2017-09-18T12:44:14.188Z,62.60
2017-09-18T12:46:57.458Z,61.40
2017-09-18T12:49:34.185Z,61.30
2017-09-18T12:52:10.483Z,61.30
2017-09-18T12:54:46.512Z,61.30
2017-09-18T12:57:21.970Z,59.80
2017-09-18T12:59:56.006Z,59.70
2017-09-18T13:02:35.296Z,67.50
2017-09-18T13:05:10.456Z,67.00
2017-09-18T13:07:49.599Z,65.60
2017-09-18T13:10:26.305Z,65.10
2017-09-18T13:13:00.337Z,64.30
2017-09-18T13:15:34.918Z,64.40
2017-09-18T13:20:54.237Z,66.90
2017-09-18T13:23:29.253Z,67.80
2017-09-18T13:26:04.857Z,68.80
2017-09-18T13:28:42.069Z,68.70
2017-09-18T13:31:16.229Z,70.40
2017-09-18T13:33:54.614Z,71.00
2017-09-18T13:36:32.524Z,70.70
2017-09-18T13:39:07.511Z,73.70
2017-09-18T13:41:45.050Z,73.90
2017-09-18T13:44:22.925Z,73.80
2017-09-18T13:47:02.073Z,76.80
2017-09-18T13:49:38.778Z,76.80
2017-09-18T13:52:13.949Z,75.40
2017-09-18T13:54:52.201Z,76.80
2017-09-18T13:57:36.426Z,76.50
2017-09-18T14:00:11.782Z,77.60
2017-09-18T14:02:48.166Z,76.30
2017-09-18T14:05:26.556Z,77.20
2017-09-18T14:08:03.402Z,77.30
2017-09-18T14:10:40.630Z,77.10
2017-09-18T14:13:21.227Z,76.60
2017-09-18T14:15:56.194Z,76.20
2017-09-18T14:18:35.281Z,79.60
2017-09-18T14:21:22.497Z,77.20
2017-09-18T14:23:58.407Z,77.10
2017-09-18T14:26:42.588Z,72.70
2017-09-18T14:29:17.080Z,72.80
2017-09-18T14:31:56.840Z,72.30
2017-09-18T14:34:34.152Z,72.00
2017-09-18T14:37:11.676Z,71.90
2017-09-18T14:39:47.392Z,72.80
2017-09-18T14:42:27.212Z,71.60
2017-09-18T14:45:03.431Z,71.80
2017-09-18T14:47:40.740Z,71.60
2017-09-18T14:50:14.758Z,70.70
2017-09-18T14:52:55.242Z,73.60
2017-09-18T14:55:31.394Z,73.30
2017-09-18T14:58:09.228Z,72.50
2017-09-18T15:00:44.644Z,73.80
2017-09-18T15:03:19.612Z,72.80
2017-09-18T15:06:06.364Z,72.40
2017-09-18T15:08:44.556Z,72.90
2017-09-18T15:11:20.515Z,72.50
2017-09-18T15:13:56.503Z,72.90
2017-09-18T15:16:36.270Z,72.20
2017-09-18T15:19:11.486Z,73.60
2017-09-18T15:21:49.079Z,72.70
2017-09-18T15:24:32.372Z,75.00
2017-09-18T15:27:10.187Z,75.40
2017-09-18T15:29:45.769Z,75.10
2017-09-18T15:32:19.771Z,74.50
2017-09-18T15:34:58.344Z,71.20
2017-09-18T15:37:34.907Z,72.50
2017-09-18T15:40:11.911Z,72.70
2017-09-18T15:42:47.859Z,72.50
2017-09-18T15:45:22.004Z,70.90
2017-09-18T15:48:00.393Z,69.60
2017-09-18T15:50:36.197Z,70.40
2017-09-18T15:53:11.267Z,71.20
2017-09-18T15:55:46.781Z,72.40
2017-09-18T15:58:24.007Z,72.20
2017-09-18T16:01:12.466Z,72.10
2017-09-18T16:03:48.013Z,71.30
2017-09-18T16:06:22.090Z,71.00
2017-09-18T16:08:58.904Z,70.60
2017-09-18T16:11:34.253Z,72.80
2017-09-18T16:14:09.933Z,73.40
2017-09-18T16:16:45.689Z,73.10
2017-09-18T16:19:21.455Z,72.80
2017-09-18T16:21:57.054Z,73.10
2017-09-18T16:24:35.782Z,72.90
2017-09-18T16:27:11.338Z,72.80
2017-09-18T16:29:45.465Z,72.70
2017-09-18T16:32:20.112Z,72.40
2017-09-18T16:34:54.935Z,72.30
2017-09-18T16:37:30.073Z,72.20
2017-09-18T16:40:06.368Z,72.40
2017-09-18T16:42:42.972Z,73.20
2017-09-18T16:45:19.377Z,71.70
2017-09-18T16:47:53.534Z,71.50
2017-09-18T16:50:28.401Z,72.70
2017-09-18T16:53:09.277Z,73.20
2017-09-18T16:55:49.704Z,73.00
2017-09-18T16:58:29.560Z,72.90
2017-09-18T17:01:06.601Z,74.20
2017-09-18T17:03:43.603Z,74.30
2017-09-18T17:06:19.079Z,74.80
2017-09-18T17:08:55.480Z,74.70
2017-09-18T17:11:31.631Z,75.60
2017-09-18T17:14:07.516Z,77.20
2017-09-18T17:16:47.011Z,78.60
2017-09-18T17:19:23.441Z,78.80
2017-09-18T17:21:58.970Z,78.70
2017-09-18T17:24:35.260Z,79.00
2017-09-18T17:27:13.296Z,78.80
2017-09-18T17:29:50.555Z,77.60
2017-09-18T17:32:24.724Z,77.20
2017-09-18T17:35:00.537Z,77.30
2017-09-18T17:37:37.116Z,77.40
2017-09-18T17:40:12.949Z,77.50
2017-09-18T17:42:49.754Z,78.10
2017-09-18T17:45:23.628Z,77.30
2017-09-18T17:47:57.452Z,77.50
2017-09-18T17:50:36.595Z,78.80
2017-09-18T17:53:14.043Z,79.70
2017-09-18T17:55:48.059Z,79.60
2017-09-18T17:58:26.512Z,79.40
2017-09-18T18:01:01.874Z,78.90
2017-09-18T18:03:36.016Z,78.70
2017-09-18T18:06:12.480Z,79.00
2017-09-18T18:08:50.035Z,78.90
2017-09-18T18:11:24.743Z,78.70
2017-09-18T18:18:18.033Z,78.70
2017-09-18T18:20:54.792Z,79.00
2017-09-18T18:23:29.711Z,79.10
2017-09-18T18:26:04.541Z,79.00
2017-09-18T18:28:42.050Z,79.80
2017-09-18T18:31:16.840Z,79.70
2017-09-18T18:33:50.826Z,79.70
2017-09-18T18:36:27.797Z,79.50
2017-09-18T18:39:02.143Z,79.30
2017-09-18T18:41:39.719Z,80.00
2017-09-18T18:44:16.633Z,79.90
2017-09-18T18:46:51.323Z,79.50
2017-09-18T18:49:26.393Z,79.70
2017-09-18T18:52:00.363Z,79.60
2017-09-18T18:54:35.405Z,79.80
2017-09-18T18:57:10.477Z,79.90
2017-09-18T18:59:46.061Z,80.00
2017-09-18T19:02:23.983Z,80.20
2017-09-18T19:04:59.557Z,80.00
2017-09-18T19:07:34.144Z,80.30
2017-09-18T19:10:08.270Z,80.20
2017-09-18T19:12:43.057Z,80.10
2017-09-18T19:15:18.338Z,80.20
2017-09-18T19:17:53.914Z,80.20
2017-09-18T19:20:30.789Z,80.10
2017-09-18T19:23:12.500Z,80.00
2017-09-18T19:25:48.846Z,79.80
2017-09-18T19:28:23.411Z,79.60
2017-09-18T19:30:58.202Z,79.60
2017-09-18T19:33:32.858Z,79.70
2017-09-18T19:36:08.074Z,79.50
2017-09-18T19:38:42.839Z,79.50
2017-09-18T19:41:16.905Z,79.60
2017-09-18T19:43:50.868Z,79.90
2017-09-18T19:46:28.225Z,80.00
2017-09-18T19:49:06.477Z,80.20
2017-09-18T19:51:40.724Z,80.10
2017-09-18T19:54:15.968Z,79.70
2017-09-18T19:56:51.749Z,79.40
2017-09-18T19:59:25.649Z,79.70
2017-09-18T20:02:00.179Z,79.70
2017-09-18T20:04:38.128Z,79.70
2017-09-18T20:07:13.340Z,80.50
2017-09-18T20:09:47.203Z,80.90
2017-09-18T20:12:24.476Z,80.70
2017-09-18T20:14:59.638Z,80.60
2017-09-18T20:17:37.246Z,80.30
2017-09-18T20:20:18.088Z,81.50
2017-09-18T20:22:58.231Z,81.60
2017-09-18T20:25:34.832Z,81.50
2017-09-18T20:28:09.573Z,81.20
2017-09-18T20:30:47.434Z,80.70
2017-09-18T20:33:27.514Z,80.70
2017-09-18T20:36:02.406Z,80.60
2017-09-18T20:38:42.080Z,80.20
2017-09-18T20:41:16.707Z,80.10
2017-09-18T20:43:55.951Z,79.80
2017-09-18T20:46:34.118Z,79.50
2017-09-18T20:49:08.306Z,79.70
2017-09-18T20:51:42.379Z,79.50
2017-09-18T20:54:20.573Z,80.40
2017-09-18T20:56:56.472Z,80.30
2017-09-18T20:59:32.699Z,80.20
2017-09-18T21:02:10.663Z,80.40
2017-09-18T21:04:47.968Z,80.70
2017-09-18T21:07:23.708Z,80.50
2017-09-18T21:09:58.132Z,80.20
2017-09-18T21:12:33.357Z,80.40
2017-09-18T21:15:08.334Z,80.50
2017-09-18T21:17:43.011Z,80.00
2017-09-18T21:20:19.188Z,80.30
2017-09-18T21:22:55.283Z,80.10
2017-09-18T21:25:30.609Z,80.00
2017-09-18T21:28:05.669Z,80.00
2017-09-18T21:30:42.417Z,80.80
2017-09-18T21:33:20.961Z,80.50
2017-09-18T21:35:58.849Z,80.50
2017-09-18T21:38:35.286Z,80.30
2017-09-18T21:41:09.919Z,80.50
2017-09-18T21:43:47.265Z,80.00
2017-09-18T21:46:28.531Z,80.40
2017-09-18T21:49:03.503Z,80.30
2017-09-18T21:51:39.099Z,80.20
2017-09-18T21:54:14.383Z,80.10
2017-09-18T21:56:51.437Z,80.40
2017-09-18T21:59:27.935Z,80.40
2017-09-18T22:02:05.276Z,81.10
2017-09-18T22:04:39.721Z,80.90
2017-09-18T22:07:16.165Z,81.40
2017-09-18T22:09:52.425Z,81.10
2017-09-18T22:12:30.587Z,81.00
2017-09-18T22:15:06.033Z,80.80
2017-09-18T22:17:41.849Z,80.70
2017-09-18T22:20:20.037Z,81.00
2017-09-18T22:22:54.502Z,80.70
2017-09-18T22:25:28.252Z,80.50
2017-09-18T22:28:02.575Z,80.60
2017-09-18T22:30:36.895Z,80.70
2017-09-18T22:33:14.396Z,81.90
2017-09-18T22:35:50.861Z,82.20
2017-09-18T22:38:25.545Z,81.70
2017-09-18T22:41:01.333Z,81.40
2017-09-18T22:43:37.814Z,81.30
2017-09-18T22:46:12.257Z,81.00
2017-09-18T22:48:49.215Z,80.60
2017-09-18T22:51:24.778Z,81.00
2017-09-18T22:53:59.181Z,81.60
2017-09-18T22:56:34.106Z,81.90
2017-09-18T22:59:09.741Z,83.90
2017-09-18T23:01:44.425Z,83.60
2017-09-18T23:04:18.250Z,83.00
2017-09-18T23:06:53.800Z,82.50
2017-09-18T23:09:28.686Z,82.20
2017-09-18T23:12:03.517Z,82.30
2017-09-18T23:14:38.221Z,82.50
2017-09-18T23:17:13.441Z,83.00
2017-09-18T23:19:48.163Z,83.50
2017-09-18T23:22:24.154Z,83.30
2017-09-18T23:24:59.181Z,83.10
2017-09-18T23:27:34.116Z,83.00
2017-09-18T23:30:07.906Z,83.00
2017-09-18T23:32:44.369Z,83.00
2017-09-18T23:35:19.674Z,82.70
2017-09-18T23:37:56.505Z,82.80
2017-09-18T23:40:30.817Z,83.10
2017-09-18T23:43:05.080Z,83.00
2017-09-18T23:45:39.130Z,83.40
2017-09-18T23:48:15.739Z,83.80
2017-09-18T23:50:50.543Z,83.50
2017-09-18T23:53:26.945Z,83.30
2017-09-18T23:56:03.643Z,83.30
2017-09-18T23:58:38.881Z,83.30
